Time;durP1;ratioP1;P1;durP2;ratioP2;P2;SDS_P1;SDS_P2;PMS_P1;PMS_P2;Temp;Humidity;BMP_temperature;BMP_pressure;BME280_temperature;BME280_humidity;BME280_pressure;Samples;Min_cycle;Max_cycle;Signal;HPM_P1;HPM_P2
2022/04/26 03:36:12;;;;;;;13.88;3.42;;;;;;;;;;5029965;28;20037;-64
2022/04/26 03:38:41;;;;;;;9.75;2.72;;;;;;;;;;5028415;28;20037;-64
2022/04/26 03:41:08;;;;;;;14.43;3.53;;;;;;;;;;5042818;28;20119;-64
2022/04/26 03:43:34;;;;;;;12.75;3.42;;;;;;;;;;5027603;28;20060;-64
2022/04/26 03:46:00;;;;;;;10.10;3.28;;;;;;;;;;5058085;28;20103;-65
2022/04/26 03:48:26;;;;;;;13.07;3.45;;;;;;;;;;5050608;28;20124;-64
2022/04/26 03:50:52;;;;;;;16.15;2.95;;;;;;;;;;5027978;28;20060;-64
2022/04/26 03:53:18;;;;;;;14.90;3.00;;;;;;;;;;4994922;28;20041;-65
2022/04/26 03:55:44;;;;;;;16.48;3.00;;;;;;;;;;5027670;28;20037;-64
2022/04/26 03:58:10;;;;;;;14.50;2.72;;;;;;;;;;5031655;28;20041;-65
2022/04/26 04:00:37;;;;;;;14.32;3.20;;;;;;;;;;5027770;28;20033;-65
2022/04/26 04:03:03;;;;;;;10.05;2.88;;;;;;;;;;5011210;28;20056;-66
2022/04/26 04:05:29;;;;;;;14.88;2.67;;;;;;;;;;5027679;28;20047;-64
2022/04/26 04:07:55;;;;;;;15.63;3.63;;;;;;;;;;5011157;28;20088;-65
2022/04/26 04:10:21;;;;;;;13.50;2.70;;;;;;;;;;5035137;28;20050;-65
2022/04/26 04:12:47;;;;;;;11.98;3.13;;;;;;;;;;5028087;28;20072;-64
2022/04/26 04:15:13;;;;;;;10.43;3.10;;;;;;;;;;5027311;28;20459;-63
2022/04/26 04:17:39;;;;;;;12.18;3.35;;;;;;;;;;5028572;28;20069;-64
2022/04/26 04:20:05;;;;;;;12.93;3.67;;;;;;;;;;5024566;28;20423;-63
2022/04/26 04:22:31;;;;;;;10.98;3.08;;;;;;;;;;5016435;28;20037;-64
2022/04/26 04:24:58;;;;;;;12.98;2.92;;;;;;;;;;5033705;28;20484;-65
2022/04/26 04:27:24;;;;;;;11.15;2.92;;;;;;;;;;4994528;28;20045;-64
2022/04/26 04:29:51;;;;;;;11.88;2.47;;;;;;;;;;5027716;28;20032;-64
2022/04/26 04:32:18;;;;;;;12.63;3.15;;;;;;;;;;5028716;28;20045;-65
2022/04/26 04:34:44;;;;;;;15.95;3.45;;;;;;;;;;5027455;28;20045;-63
2022/04/26 04:37:10;;;;;;;12.63;2.78;;;;;;;;;;5049106;28;20069;-64
2022/04/26 04:39:39;;;;;;;14.52;2.92;;;;;;;;;;5010599;28;20049;-63
2022/04/26 04:42:05;;;;;;;10.13;2.65;;;;;;;;;;5026656;28;20037;-64
2022/04/26 04:44:31;;;;;;;9.40;3.05;;;;;;;;;;5057328;28;20047;-63
2022/04/26 04:46:59;;;;;;;10.65;2.80;;;;;;;;;;5028659;28;20064;-63
2022/04/26 04:49:25;;;;;;;9.52;2.40;;;;;;;;;;5037170;28;20042;-64
2022/04/26 04:51:51;;;;;;;12.13;2.78;;;;;;;;;;5051430;28;20049;-63
2022/04/26 04:54:17;;;;;;;12.02;2.33;;;;;;;;;;5027971;28;20155;-64
2022/04/26 04:56:43;;;;;;;10.63;2.70;;;;;;;;;;5026838;28;20083;-63
2022/04/26 04:59:10;;;;;;;11.38;2.85;;;;;;;;;;5026442;28;20067;-63
2022/04/26 05:01:36;;;;;;;13.05;2.75;;;;;;;;;;5026973;28;20050;-63
2022/04/26 05:04:02;;;;;;;11.52;2.88;;;;;;;;;;5026317;28;20037;-65
2022/04/26 05:06:28;;;;;;;12.95;2.88;;;;;;;;;;5026777;28;20099;-64
2022/04/26 05:08:54;;;;;;;13.27;2.30;;;;;;;;;;5026592;28;20045;-64
2022/04/26 05:11:20;;;;;;;11.30;2.78;;;;;;;;;;5009235;28;20171;-64
2022/04/26 05:13:46;;;;;;;11.70;2.35;;;;;;;;;;5009972;28;20713;-64
2022/04/26 05:16:12;;;;;;;9.52;2.80;;;;;;;;;;4994581;28;20400;-64
2022/04/26 05:18:38;;;;;;;11.80;1.98;;;;;;;;;;5053212;28;20079;-65
2022/04/26 05:21:13;;;;;;;11.85;2.28;;;;;;;;;;5053810;28;20103;-63
2022/04/26 05:26:24;;;;;;;11.40;1.95;;;;;;;;;;5027566;28;20168;-63
2022/04/26 05:28:50;;;;;;;14.48;2.03;;;;;;;;;;5046291;28;20045;-63
2022/04/26 05:31:16;;;;;;;8.90;2.10;;;;;;;;;;5027639;28;20140;-64
2022/04/26 05:33:43;;;;;;;11.52;2.42;;;;;;;;;;5052696;28;20179;-64
2022/04/26 05:36:09;;;;;;;9.10;2.70;;;;;;;;;;5026142;28;20041;-65
2022/04/26 05:38:35;;;;;;;14.63;2.55;;;;;;;;;;5026774;28;20117;-64
2022/04/26 05:41:01;;;;;;;10.00;2.30;;;;;;;;;;5010007;28;20134;-63
2022/04/26 05:43:27;;;;;;;11.82;2.60;;;;;;;;;;5009249;28;20084;-63
2022/04/26 05:45:53;;;;;;;14.05;2.55;;;;;;;;;;5026548;28;20041;-63
2022/04/26 05:48:20;;;;;;;10.82;2.40;;;;;;;;;;5028631;28;20037;-62
2022/04/26 05:50:46;;;;;;;10.30;2.28;;;;;;;;;;5029588;28;20045;-63
2022/04/26 05:53:12;;;;;;;9.68;1.95;;;;;;;;;;5027181;28;20041;-62
2022/04/26 05:55:39;;;;;;;11.50;1.85;;;;;;;;;;5029236;28;20464;-61
2022/04/26 05:58:05;;;;;;;8.02;1.75;;;;;;;;;;5028296;28;20056;-62
2022/04/26 06:00:31;;;;;;;13.55;2.17;;;;;;;;;;5028637;28;20072;-63
2022/04/26 06:02:57;;;;;;;10.55;2.03;;;;;;;;;;5027868;28;20095;-63
2022/04/26 06:05:23;;;;;;;10.32;1.55;;;;;;;;;;5028412;28;20404;-62
2022/04/26 06:07:49;;;;;;;12.80;1.67;;;;;;;;;;5029133;28;20037;-63
2022/04/26 06:10:16;;;;;;;8.93;1.70;;;;;;;;;;5027744;28;20042;-63
2022/04/26 06:12:44;;;;;;;9.80;1.52;;;;;;;;;;5029156;28;20040;-63
2022/04/26 06:15:10;;;;;;;9.32;1.40;;;;;;;;;;5029730;28;20045;-61
2022/04/26 06:17:37;;;;;;;7.13;1.52;;;;;;;;;;5028319;28;20049;-63
2022/04/26 06:20:03;;;;;;;8.10;1.67;;;;;;;;;;5027877;28;20037;-62
2022/04/26 06:22:29;;;;;;;10.38;1.92;;;;;;;;;;5030788;28;20064;-62
2022/04/26 06:24:56;;;;;;;12.00;1.73;;;;;;;;;;5042058;28;20476;-63
2022/04/26 06:27:22;;;;;;;12.10;1.67;;;;;;;;;;5032123;28;20141;-62
2022/04/26 06:29:48;;;;;;;9.32;1.95;;;;;;;;;;5030434;28;20042;-61
2022/04/26 06:32:14;;;;;;;10.27;1.80;;;;;;;;;;5038596;28;20132;-65
2022/04/26 06:34:40;;;;;;;6.78;1.88;;;;;;;;;;5025784;28;20037;-63
2022/04/26 06:37:06;;;;;;;7.95;1.80;;;;;;;;;;5049802;28;20081;-62
2022/04/26 06:39:33;;;;;;;11.73;1.60;;;;;;;;;;5012549;28;20041;-62
2022/04/26 06:41:59;;;;;;;7.72;1.77;;;;;;;;;;5012385;28;20041;-63
2022/04/26 06:44:26;;;;;;;6.57;1.40;;;;;;;;;;5031058;28;20132;-62
2022/04/26 06:46:52;;;;;;;11.18;1.65;;;;;;;;;;5033334;28;20052;-64
2022/04/26 06:49:19;;;;;;;8.63;1.33;;;;;;;;;;5032187;28;20155;-62
2022/04/26 06:51:45;;;;;;;11.20;1.48;;;;;;;;;;5065309;28;20099;-63
2022/04/26 06:54:11;;;;;;;8.48;1.50;;;;;;;;;;5031841;28;20506;-63
2022/04/26 06:56:40;;;;;;;7.65;1.40;;;;;;;;;;5063380;28;20049;-64
2022/04/26 06:59:06;;;;;;;9.63;1.40;;;;;;;;;;5029370;28;20053;-63
2022/04/26 07:01:32;;;;;;;9.20;1.40;;;;;;;;;;5029511;28;20041;-65
2022/04/26 07:03:58;;;;;;;5.60;1.10;;;;;;;;;;5030518;28;20080;-63
2022/04/26 07:06:24;;;;;;;11.98;1.33;;;;;;;;;;5029114;28;20486;-63
2022/04/26 07:08:50;;;;;;;9.75;1.55;;;;;;;;;;5036545;28;20033;-64
2022/04/26 07:11:16;;;;;;;9.75;1.73;;;;;;;;;;5030785;28;20041;-64
2022/04/26 07:13:43;;;;;;;7.93;1.10;;;;;;;;;;5028652;28;20364;-64
2022/04/26 07:16:09;;;;;;;8.40;1.42;;;;;;;;;;5030073;28;20064;-64
2022/04/26 07:18:35;;;;;;;6.70;1.20;;;;;;;;;;5028908;28;20053;-64
2022/04/26 07:21:01;;;;;;;8.18;1.15;;;;;;;;;;5054152;28;20046;-64
2022/04/26 07:23:28;;;;;;;4.25;0.82;;;;;;;;;;5054815;28;20521;-64
2022/04/26 07:25:55;;;;;;;7.03;1.10;;;;;;;;;;5054666;28;20447;-64
2022/04/26 07:28:23;;;;;;;7.50;1.10;;;;;;;;;;5028447;28;20060;-64
2022/04/26 07:30:49;;;;;;;7.82;1.35;;;;;;;;;;5028793;28;20041;-64
2022/04/26 07:36:00;;;;;;;9.70;1.55;;;;;;;;;;5030164;28;20752;-65
2022/04/26 07:38:26;;;;;;;6.00;1.13;;;;;;;;;;5030626;28;20400;-64
2022/04/26 07:40:52;;;;;;;8.45;1.40;;;;;;;;;;5029791;28;20033;-64
2022/04/26 07:43:18;;;;;;;8.60;1.02;;;;;;;;;;5036701;28;20159;-65
2022/04/26 07:45:45;;;;;;;9.43;1.25;;;;;;;;;;5028344;28;20037;-63
2022/04/26 07:48:12;;;;;;;7.28;0.85;;;;;;;;;;5029499;28;20979;-64
2022/04/26 07:50:38;;;;;;;8.70;1.30;;;;;;;;;;5037453;28;20124;-65
2022/04/26 07:53:05;;;;;;;9.55;1.70;;;;;;;;;;5034549;28;20159;-63
2022/04/26 07:55:31;;;;;;;8.57;1.17;;;;;;;;;;5027574;28;20438;-63
2022/04/26 07:58:00;;;;;;;5.40;0.85;;;;;;;;;;5043762;28;20368;-63
2022/04/26 08:00:27;;;;;;;7.85;1.20;;;;;;;;;;5030338;28;20057;-63
2022/04/26 08:02:53;;;;;;;6.85;1.25;;;;;;;;;;5031736;28;20415;-64
2022/04/26 08:05:19;;;;;;;6.28;1.05;;;;;;;;;;5030948;28;20037;-64
2022/04/26 08:07:45;;;;;;;7.03;1.15;;;;;;;;;;5030300;28;20128;-63
2022/04/26 08:10:12;;;;;;;7.47;1.10;;;;;;;;;;5029053;28;20037;-63
2022/04/26 08:12:39;;;;;;;7.00;1.23;;;;;;;;;;5057231;28;20048;-64
2022/04/26 08:15:06;;;;;;;10.88;1.95;;;;;;;;;;5045141;28;20053;-64
2022/04/26 08:17:32;;;;;;;5.28;1.15;;;;;;;;;;5029307;28;20044;-63
2022/04/26 08:19:58;;;;;;;6.95;0.90;;;;;;;;;;5029967;28;20034;-64
2022/04/26 08:22:27;;;;;;;7.85;1.05;;;;;;;;;;5029878;28;20120;-64
2022/04/26 08:27:38;;;;;;;7.82;1.17;;;;;;;;;;5026352;28;20065;-64
2022/04/26 08:30:05;;;;;;;7.82;1.00;;;;;;;;;;5028054;28;20468;-64
2022/04/26 08:32:40;;;;;;;5.32;0.90;;;;;;;;;;5029633;28;20045;-65
2022/04/26 08:35:06;;;;;;;8.65;1.40;;;;;;;;;;5030144;28;20044;-65
2022/04/26 08:37:34;;;;;;;4.68;0.70;;;;;;;;;;5029885;28;20041;-64
2022/04/26 08:40:00;;;;;;;7.13;0.93;;;;;;;;;;5045489;28;20049;-64
2022/04/26 08:42:40;;;;;;;8.23;1.15;;;;;;;;;;5029866;28;20056;-64
2022/04/26 08:45:09;;;;;;;4.97;0.90;;;;;;;;;;5028205;28;20045;-63
2022/04/26 08:53:06;;;;;;;6.60;1.05;;;;;;;;;;5030029;28;20049;-64
2022/04/26 08:55:32;;;;;;;6.60;0.90;;;;;;;;;;5047485;28;20120;-63
2022/04/26 08:57:59;;;;;;;7.43;1.30;;;;;;;;;;5032464;28;20523;-63
2022/04/26 09:00:25;;;;;;;5.47;1.40;;;;;;;;;;5028456;28;20458;-63
2022/04/26 09:03:03;;;;;;;5.30;1.00;;;;;;;;;;5028460;28;20034;-65
2022/04/26 09:05:29;;;;;;;6.72;1.00;;;;;;;;;;5027088;28;20033;-63
2022/04/26 09:07:56;;;;;;;7.30;1.00;;;;;;;;;;5028930;28;20191;-63
2022/04/26 09:10:22;;;;;;;3.63;1.00;;;;;;;;;;5049915;28;20128;-64
2022/04/26 09:12:57;;;;;;;3.42;0.88;;;;;;;;;;5029293;28;20464;-65
2022/04/26 09:15:24;;;;;;;8.18;1.25;;;;;;;;;;5029357;28;20120;-64
2022/04/26 09:17:50;;;;;;;4.43;1.00;;;;;;;;;;5027613;28;20037;-63
2022/04/26 09:20:31;;;;;;;6.25;1.10;;;;;;;;;;5041153;28;20072;-65
2022/04/26 09:23:00;;;;;;;6.85;1.02;;;;;;;;;;5028693;28;20056;-64
2022/04/26 09:25:27;;;;;;;8.02;1.30;;;;;;;;;;5028193;28;20052;-63
2022/04/26 09:28:01;;;;;;;4.60;0.63;;;;;;;;;;5026713;28;20094;-65
2022/04/26 09:30:29;;;;;;;4.45;1.10;;;;;;;;;;5028423;28;20109;-64
2022/04/26 09:32:55;;;;;;;5.68;0.80;;;;;;;;;;5033865;28;20044;-64
2022/04/26 09:35:22;;;;;;;3.17;0.80;;;;;;;;;;5028447;28;20125;-65
2022/04/26 09:37:48;;;;;;;5.47;1.23;;;;;;;;;;5028180;28;20029;-65
2022/04/26 09:40:15;;;;;;;5.13;0.80;;;;;;;;;;5028542;28;20038;-65
2022/04/26 09:42:41;;;;;;;4.78;0.90;;;;;;;;;;5026905;28;20050;-65
2022/04/26 09:45:08;;;;;;;4.35;0.70;;;;;;;;;;5011355;28;20064;-64
2022/04/26 09:47:35;;;;;;;5.35;1.00;;;;;;;;;;5056348;28;20041;-65
2022/04/26 09:50:05;;;;;;;6.90;0.90;;;;;;;;;;5007959;28;20228;-65
2022/04/26 09:52:31;;;;;;;5.53;1.00;;;;;;;;;;5009577;28;20106;-64
2022/04/26 09:55:00;;;;;;;5.82;0.90;;;;;;;;;;5008270;28;20042;-65
2022/04/26 09:57:27;;;;;;;4.45;1.08;;;;;;;;;;5010563;28;20054;-65
2022/04/26 09:59:54;;;;;;;4.25;0.70;;;;;;;;;;5033461;28;20243;-64
2022/04/26 10:02:22;;;;;;;7.35;1.08;;;;;;;;;;5032853;28;20111;-64
2022/04/26 10:04:52;;;;;;;4.97;0.80;;;;;;;;;;5048252;28;20048;-64
2022/04/26 10:07:20;;;;;;;3.53;0.70;;;;;;;;;;5032602;28;20580;-64
2022/04/26 10:09:46;;;;;;;5.43;0.98;;;;;;;;;;5064449;28;20037;-64
2022/04/26 10:12:13;;;;;;;7.18;0.98;;;;;;;;;;5064397;28;20122;-65
2022/04/26 10:14:39;;;;;;;3.42;0.65;;;;;;;;;;5031786;28;20033;-65
2022/04/26 10:17:07;;;;;;;4.18;0.90;;;;;;;;;;5014398;28;20594;-65
2022/04/26 10:19:40;;;;;;;6.20;1.15;;;;;;;;;;5031275;28;20506;-65
2022/04/26 10:22:11;;;;;;;4.75;0.70;;;;;;;;;;5013776;28;20069;-64
2022/04/26 10:24:41;;;;;;;3.47;0.60;;;;;;;;;;5031422;28;20047;-64
2022/04/26 10:27:17;;;;;;;6.03;0.90;;;;;;;;;;5030486;28;20123;-64
2022/04/26 10:29:44;;;;;;;4.72;0.80;;;;;;;;;;5030968;28;20049;-65
2022/04/26 10:32:13;;;;;;;7.82;1.30;;;;;;;;;;5031440;28;20048;-65
2022/04/26 10:34:41;;;;;;;6.53;1.05;;;;;;;;;;5025602;28;20124;-63
2022/04/26 10:37:11;;;;;;;6.82;1.00;;;;;;;;;;5029857;28;20049;-65
2022/04/26 10:39:38;;;;;;;5.85;0.90;;;;;;;;;;5030052;28;20566;-64
2022/04/26 10:42:20;;;;;;;3.13;1.02;;;;;;;;;;5030008;28;20061;-64
2022/04/26 10:44:47;;;;;;;4.38;0.90;;;;;;;;;;5054688;28;20132;-64
2022/04/26 10:47:18;;;;;;;4.63;0.90;;;;;;;;;;5031434;28;20613;-64
2022/04/26 10:49:45;;;;;;;4.05;0.90;;;;;;;;;;5030608;28;20037;-65
2022/04/26 10:52:24;;;;;;;4.28;0.80;;;;;;;;;;5031191;28;20057;-64
2022/04/26 10:54:58;;;;;;;5.43;0.90;;;;;;;;;;5029176;28;20523;-64
2022/04/26 10:57:28;;;;;;;4.03;0.65;;;;;;;;;;5030927;28;21327;-65
2022/04/26 10:59:59;;;;;;;5.40;1.00;;;;;;;;;;5030938;28;20084;-64
2022/04/26 11:02:26;;;;;;;3.63;0.88;;;;;;;;;;5030458;28;20065;-65
2022/04/26 11:04:56;;;;;;;6.68;0.90;;;;;;;;;;5028806;28;20033;-65
2022/04/26 11:07:25;;;;;;;4.50;0.90;;;;;;;;;;5060192;28;20056;-64
2022/04/26 11:09:53;;;;;;;4.25;0.95;;;;;;;;;;5047932;28;20045;-65
2022/04/26 11:12:37;;;;;;;3.97;1.05;;;;;;;;;;5028542;28;20061;-65
2022/04/26 11:15:07;;;;;;;6.15;0.90;;;;;;;;;;5029743;28;20045;-65
2022/04/26 11:17:34;;;;;;;5.05;1.02;;;;;;;;;;5029780;28;20403;-64
2022/04/26 11:20:03;;;;;;;3.75;1.00;;;;;;;;;;5030704;28;20048;-65
2022/04/26 11:22:29;;;;;;;7.07;0.90;;;;;;;;;;5029450;28;20044;-65
2022/04/26 11:28:05;;;;;;;5.18;1.02;;;;;;;;;;5052790;28;20519;-65
2022/04/26 11:30:36;;;;;;;4.82;1.05;;;;;;;;;;5051167;28;20459;-65
2022/04/26 11:33:03;;;;;;;6.97;1.00;;;;;;;;;;5030460;28;20041;-65
2022/04/26 11:35:29;;;;;;;4.18;0.70;;;;;;;;;;5027494;28;20038;-64
2022/04/26 11:38:06;;;;;;;5.38;1.10;;;;;;;;;;5029979;28;20037;-65
2022/04/26 11:40:34;;;;;;;5.80;0.88;;;;;;;;;;5029423;28;20481;-64
2022/04/26 11:43:11;;;;;;;3.95;0.80;;;;;;;;;;5030281;28;20140;-65
2022/04/26 11:45:37;;;;;;;5.03;1.10;;;;;;;;;;5009632;28;20050;-64
2022/04/26 11:48:04;;;;;;;5.10;0.82;;;;;;;;;;5014851;28;20133;-64
2022/04/26 11:50:31;;;;;;;4.93;1.00;;;;;;;;;;5009717;28;20038;-64
2022/04/26 11:53:01;;;;;;;4.57;1.20;;;;;;;;;;5011086;28;20523;-65
2022/04/26 11:55:29;;;;;;;6.78;1.02;;;;;;;;;;5010812;28;20558;-64
2022/04/26 11:58:07;;;;;;;3.97;0.70;;;;;;;;;;5010679;28;20391;-65
2022/04/26 12:00:34;;;;;;;5.15;1.10;;;;;;;;;;5020000;28;20041;-64
2022/04/26 12:03:01;;;;;;;4.30;1.00;;;;;;;;;;5029208;28;20045;-64
2022/04/26 12:05:27;;;;;;;2.97;0.80;;;;;;;;;;5030512;28;20053;-64
2022/04/26 12:07:53;;;;;;;5.80;0.77;;;;;;;;;;5030640;28;20399;-65
2022/04/26 12:10:27;;;;;;;5.57;0.90;;;;;;;;;;5028924;28;20049;-65
2022/04/26 12:12:54;;;;;;;3.75;0.85;;;;;;;;;;5028642;28;20029;-65
2022/04/26 12:15:25;;;;;;;3.50;0.82;;;;;;;;;;5029366;28;20049;-63
2022/04/26 12:18:10;;;;;;;6.32;1.10;;;;;;;;;;5029545;28;20117;-65
2022/04/26 12:20:37;;;;;;;6.93;1.00;;;;;;;;;;5058315;28;20045;-64
2022/04/26 12:23:04;;;;;;;5.20;0.90;;;;;;;;;;5035753;28;20041;-65
2022/04/26 12:25:30;;;;;;;6.32;0.85;;;;;;;;;;5011038;28;20048;-65
2022/04/26 12:28:06;;;;;;;7.85;1.02;;;;;;;;;;5029621;28;20260;-65
2022/04/26 12:30:32;;;;;;;3.58;0.90;;;;;;;;;;5028098;28;20037;-64
2022/04/26 12:32:59;;;;;;;3.28;0.77;;;;;;;;;;5029490;28;20705;-64
2022/04/26 12:35:25;;;;;;;5.03;0.80;;;;;;;;;;5028742;28;20167;-64
2022/04/26 12:38:17;;;;;;;3.58;0.80;;;;;;;;;;5024156;28;20500;-64
2022/04/26 12:40:44;;;;;;;3.77;0.93;;;;;;;;;;5025550;28;20049;-65
2022/04/26 12:43:26;;;;;;;4.13;0.90;;;;;;;;;;5027590;28;20534;-65
2022/04/26 12:45:59;;;;;;;3.50;0.90;;;;;;;;;;5010989;28;20519;-64
2022/04/26 12:51:27;;;;;;;5.72;1.75;;;;;;;;;;5027241;28;20735;-65
2022/04/26 12:53:54;;;;;;;5.15;1.10;;;;;;;;;;5040647;28;20426;-64
2022/04/26 12:56:25;;;;;;;4.10;0.88;;;;;;;;;;5056116;28;20085;-65
2022/04/26 12:58:51;;;;;;;3.65;0.70;;;;;;;;;;5035870;28;20044;-64
2022/04/26 13:01:18;;;;;;;5.63;1.00;;;;;;;;;;5025789;28;20488;-65
2022/04/26 13:03:46;;;;;;;6.10;0.80;;;;;;;;;;5009367;28;20041;-66
2022/04/26 13:06:14;;;;;;;5.28;0.80;;;;;;;;;;5026745;28;20103;-64
2022/04/26 13:08:41;;;;;;;8.80;1.05;;;;;;;;;;5027437;28;20041;-64
2022/04/26 13:11:07;;;;;;;4.15;0.80;;;;;;;;;;5009971;28;20419;-65
2022/04/26 13:13:35;;;;;;;4.63;0.98;;;;;;;;;;5049178;28;20052;-64
2022/04/26 13:16:01;;;;;;;4.88;0.80;;;;;;;;;;5027176;28;20063;-65
2022/04/26 13:18:28;;;;;;;4.15;0.80;;;;;;;;;;5028122;28;20107;-65
2022/04/26 13:20:55;;;;;;;3.72;0.77;;;;;;;;;;5025965;28;20573;-64
2022/04/26 13:23:21;;;;;;;3.78;0.70;;;;;;;;;;5035897;28;20083;-64
2022/04/26 13:25:48;;;;;;;4.45;0.77;;;;;;;;;;5026612;28;20563;-66
2022/04/26 13:28:14;;;;;;;5.25;0.82;;;;;;;;;;5049207;28;20172;-65
2022/04/26 13:30:41;;;;;;;3.22;0.60;;;;;;;;;;5026625;28;20033;-64
2022/04/26 13:33:07;;;;;;;8.13;1.00;;;;;;;;;;5052479;28;20057;-64
2022/04/26 13:35:34;;;;;;;4.38;0.60;;;;;;;;;;5031808;28;20048;-65
2022/04/26 13:38:00;;;;;;;4.93;0.60;;;;;;;;;;5025046;28;20048;-65
2022/04/26 13:40:26;;;;;;;5.30;0.80;;;;;;;;;;5027785;28;20029;-62
2022/04/26 13:42:52;;;;;;;3.92;0.70;;;;;;;;;;5027772;28;20053;-62
2022/04/26 13:45:20;;;;;;;5.50;1.00;;;;;;;;;;5035608;28;20053;-62
2022/04/26 13:47:46;;;;;;;3.20;0.63;;;;;;;;;;5025332;28;20064;-63
2022/04/26 13:50:13;;;;;;;6.70;1.10;;;;;;;;;;5028090;28;20487;-63
2022/04/26 13:52:42;;;;;;;8.40;1.10;;;;;;;;;;5051492;28;20124;-62
2022/04/26 13:55:08;;;;;;;6.20;1.02;;;;;;;;;;5050215;28;20052;-64
2022/04/26 13:57:35;;;;;;;4.28;0.80;;;;;;;;;;5027408;28;20052;-63
2022/04/26 14:00:01;;;;;;;5.63;1.00;;;;;;;;;;5028842;28;20041;-62
2022/04/26 14:02:27;;;;;;;3.55;0.70;;;;;;;;;;5029011;28;20448;-63
2022/04/26 14:04:53;;;;;;;6.10;1.10;;;;;;;;;;5049516;28;20041;-64
2022/04/26 14:07:19;;;;;;;3.47;0.82;;;;;;;;;;5026549;28;20096;-63
2022/04/26 14:09:45;;;;;;;5.10;0.80;;;;;;;;;;5030440;28;20037;-63
2022/04/26 14:12:14;;;;;;;10.07;1.40;;;;;;;;;;5030560;28;20407;-63
2022/04/26 14:22:54;;;;;;;5.00;0.88;;;;;;;;;;5026224;28;20045;-63
2022/04/26 14:25:21;;;;;;;6.72;1.25;;;;;;;;;;5027040;28;20053;-64
2022/04/26 14:27:51;;;;;;;7.80;2.10;;;;;;;;;;5054570;28;20041;-63
2022/04/26 14:30:17;;;;;;;5.68;1.13;;;;;;;;;;5027966;28;20488;-63
2022/04/26 14:32:48;;;;;;;5.70;0.98;;;;;;;;;;5029542;28;20061;-63
2022/04/26 14:35:14;;;;;;;5.97;0.90;;;;;;;;;;5010002;28;20068;-62
2022/04/26 14:37:41;;;;;;;6.05;1.10;;;;;;;;;;5028052;28;20033;-63
2022/04/26 14:40:09;;;;;;;6.00;1.27;;;;;;;;;;5027056;28;20080;-64
2022/04/26 14:42:35;;;;;;;7.90;0.80;;;;;;;;;;5051190;28;20064;-65
2022/04/26 14:45:02;;;;;;;5.78;1.10;;;;;;;;;;5038128;28;20505;-66
2022/04/26 14:47:29;;;;;;;6.38;1.05;;;;;;;;;;5044084;28;20045;-66
2022/04/26 14:49:59;;;;;;;5.15;1.20;;;;;;;;;;5027783;28;20053;-65
2022/04/26 14:52:26;;;;;;;4.63;0.80;;;;;;;;;;5027156;28;20072;-65
2022/04/26 14:54:52;;;;;;;5.78;1.10;;;;;;;;;;5011755;28;20348;-65
2022/04/26 14:57:24;;;;;;;5.78;1.02;;;;;;;;;;5027741;28;20042;-67
2022/04/26 14:59:51;;;;;;;8.25;1.90;;;;;;;;;;5027417;28;20112;-66
2022/04/26 15:02:18;;;;;;;5.60;0.77;;;;;;;;;;5011350;28;20467;-65
2022/04/26 15:04:45;;;;;;;2.75;0.80;;;;;;;;;;5027674;28;20084;-66
2022/04/26 15:07:11;;;;;;;5.68;1.05;;;;;;;;;;5026997;28;20041;-66
2022/04/26 15:09:43;;;;;;;5.18;0.88;;;;;;;;;;5027654;28;20053;-65
2022/04/26 15:17:50;;;;;;;5.70;1.00;;;;;;;;;;5027808;28;20037;-65
2022/04/26 15:20:17;;;;;;;4.32;0.70;;;;;;;;;;5018083;28;21483;-65
2022/04/26 15:22:44;;;;;;;4.90;1.08;;;;;;;;;;5028744;28;20107;-64
2022/04/26 15:25:10;;;;;;;4.85;1.08;;;;;;;;;;5011505;28;20053;-63
2022/04/26 15:27:38;;;;;;;5.80;0.90;;;;;;;;;;5053548;28;20048;-65
2022/04/26 15:30:06;;;;;;;4.70;0.68;;;;;;;;;;5011096;28;20045;-65
2022/04/26 15:32:32;;;;;;;4.05;0.80;;;;;;;;;;5042833;28;20129;-64
2022/04/26 15:34:58;;;;;;;3.20;0.70;;;;;;;;;;5034348;28;20038;-64
2022/04/26 15:37:25;;;;;;;4.75;0.68;;;;;;;;;;5015495;28;20045;-64
2022/04/26 15:39:54;;;;;;;5.78;0.90;;;;;;;;;;5012248;28;20033;-65
2022/04/26 15:42:21;;;;;;;5.45;0.85;;;;;;;;;;5052701;28;20041;-64
2022/04/26 15:44:48;;;;;;;5.72;0.90;;;;;;;;;;5032737;28;20119;-65
2022/04/26 15:47:14;;;;;;;3.63;0.70;;;;;;;;;;5028727;28;20049;-66
2022/04/26 15:49:40;;;;;;;7.10;1.27;;;;;;;;;;5028253;28;20037;-64
2022/04/26 15:52:09;;;;;;;4.97;0.80;;;;;;;;;;5028540;28;20566;-64
2022/04/26 15:54:36;;;;;;;3.08;0.80;;;;;;;;;;5027801;28;20048;-65
2022/04/26 15:57:03;;;;;;;4.00;0.77;;;;;;;;;;5028471;28;20041;-65
2022/04/26 15:59:29;;;;;;;5.65;0.80;;;;;;;;;;5041097;28;20037;-64
2022/04/26 16:01:55;;;;;;;8.52;0.98;;;;;;;;;;5035504;28;20464;-64
2022/04/26 16:04:22;;;;;;;5.97;1.10;;;;;;;;;;5010010;28;20045;-66
2022/04/26 16:06:48;;;;;;;4.38;1.15;;;;;;;;;;5016982;28;20135;-66
2022/04/26 16:20:29;;;;;;;6.28;0.90;;;;;;;;;;5034837;28;20057;-66
2022/04/26 16:22:56;;;;;;;8.63;1.77;;;;;;;;;;5045309;28;20084;-67
2022/04/26 16:25:23;;;;;;;5.85;0.82;;;;;;;;;;5029638;28;20064;-66
2022/04/26 16:27:49;;;;;;;5.85;0.90;;;;;;;;;;5028515;28;20044;-66
2022/04/26 16:30:15;;;;;;;5.53;1.10;;;;;;;;;;5027354;28;20108;-66
2022/04/26 16:32:42;;;;;;;5.03;1.42;;;;;;;;;;5027621;28;20080;-66
2022/04/26 16:35:10;;;;;;;7.47;1.15;;;;;;;;;;5009549;28;20042;-63
2022/04/26 16:37:36;;;;;;;4.15;1.30;;;;;;;;;;5018526;28;20086;-65
2022/04/26 16:40:03;;;;;;;3.45;0.75;;;;;;;;;;5026524;28;20045;-65
2022/04/26 16:42:30;;;;;;;4.78;1.13;;;;;;;;;;5050732;28;20066;-64
2022/04/26 16:44:59;;;;;;;4.82;1.05;;;;;;;;;;5027021;28;20440;-66
2022/04/26 16:47:25;;;;;;;6.57;1.20;;;;;;;;;;5026470;28;20118;-65
2022/04/26 16:49:51;;;;;;;7.28;1.33;;;;;;;;;;5024858;28;20033;-66
2022/04/26 16:52:17;;;;;;;4.90;1.00;;;;;;;;;;5051151;28;20037;-65
2022/04/26 16:54:46;;;;;;;6.85;1.60;;;;;;;;;;5028665;28;20045;-64
2022/04/26 16:57:13;;;;;;;5.35;1.40;;;;;;;;;;5059591;28;20046;-64
2022/04/26 16:59:39;;;;;;;7.35;1.73;;;;;;;;;;5027986;28;20045;-65
2022/04/26 17:02:05;;;;;;;6.80;1.63;;;;;;;;;;5061789;28;20064;-64
2022/04/26 17:04:31;;;;;;;5.63;1.50;;;;;;;;;;5029737;28;20045;-65
2022/04/26 17:06:58;;;;;;;5.30;1.17;;;;;;;;;;5043652;28;20049;-64
2022/04/26 17:09:24;;;;;;;5.70;1.25;;;;;;;;;;5011249;28;20495;-64
2022/04/26 17:11:51;;;;;;;4.40;0.88;;;;;;;;;;5060795;28;20045;-64
2022/04/26 17:14:18;;;;;;;3.88;0.80;;;;;;;;;;5011792;28;20041;-64
2022/04/26 17:16:46;;;;;;;6.43;1.00;;;;;;;;;;5028240;28;20077;-64
2022/04/26 17:19:13;;;;;;;5.28;0.70;;;;;;;;;;5028273;28;20076;-64
2022/04/26 17:21:39;;;;;;;7.85;0.80;;;;;;;;;;5013378;28;20376;-63
2022/04/26 17:25:13;;;;;;;7.85;1.10;;;;;;;;;;5031324;28;20091;-62
2022/04/26 17:27:12;;;;;;;3.92;1.10;;;;;;;;;;5029500;28;20050;-63
2022/04/26 17:29:39;;;;;;;3.53;0.80;;;;;;;;;;5030838;28;20045;-63
2022/04/26 17:32:05;;;;;;;4.63;0.90;;;;;;;;;;5062516;28;20131;-63
2022/04/26 17:34:31;;;;;;;5.97;0.90;;;;;;;;;;5046828;28;20045;-63
2022/04/26 17:36:57;;;;;;;5.80;0.90;;;;;;;;;;5062718;28;20045;-63
2022/04/26 17:39:23;;;;;;;5.78;0.90;;;;;;;;;;5030751;28;20041;-62
2022/04/26 17:41:50;;;;;;;5.45;1.58;;;;;;;;;;5029419;28;20048;-63
2022/04/26 17:44:16;;;;;;;6.05;0.90;;;;;;;;;;5029356;28;20061;-63
2022/04/26 17:46:43;;;;;;;9.35;1.98;;;;;;;;;;5030438;28;20044;-63
2022/04/26 17:49:09;;;;;;;7.53;1.33;;;;;;;;;;5056794;28;20153;-63
2022/04/26 17:51:35;;;;;;;5.93;1.50;;;;;;;;;;5031346;28;20041;-63
2022/04/26 17:56:46;;;;;;;7.22;1.50;;;;;;;;;;5027671;28;20045;-65
2022/04/26 17:59:13;;;;;;;6.68;1.13;;;;;;;;;;5030044;28;20419;-66
2022/04/26 18:01:39;;;;;;;5.50;1.25;;;;;;;;;;5026204;28;20087;-66
2022/04/26 18:04:06;;;;;;;8.48;1.23;;;;;;;;;;5027027;28;20391;-66
2022/04/26 18:06:32;;;;;;;5.53;1.38;;;;;;;;;;5026357;28;20499;-67
2022/04/26 18:08:59;;;;;;;6.38;1.10;;;;;;;;;;5025982;28;20095;-65
2022/04/26 18:11:25;;;;;;;5.75;0.80;;;;;;;;;;5008707;28;20030;-66
2022/04/26 18:13:54;;;;;;;5.18;1.00;;;;;;;;;;5026972;28;20056;-65
2022/04/26 18:16:21;;;;;;;5.78;1.15;;;;;;;;;;5024899;28;20572;-65
2022/04/26 18:18:47;;;;;;;5.40;0.93;;;;;;;;;;5027252;28;20041;-67
2022/04/26 18:21:16;;;;;;;4.78;1.42;;;;;;;;;;5029084;28;20083;-65
2022/04/26 18:23:42;;;;;;;6.40;1.77;;;;;;;;;;5057742;28;20053;-65
2022/04/26 18:26:11;;;;;;;7.68;1.40;;;;;;;;;;5051186;28;20092;-64
2022/04/26 18:28:39;;;;;;;7.10;1.17;;;;;;;;;;5028869;28;20363;-65
2022/04/26 18:31:05;;;;;;;7.07;1.42;;;;;;;;;;5029154;28;20128;-65
2022/04/26 18:33:31;;;;;;;6.90;0.80;;;;;;;;;;5033897;28;20041;-65
2022/04/26 18:35:57;;;;;;;5.93;1.23;;;;;;;;;;5030260;28;20045;-67
2022/04/26 18:38:24;;;;;;;5.60;1.10;;;;;;;;;;5051185;28;20055;-65
2022/04/26 18:40:51;;;;;;;6.45;1.33;;;;;;;;;;5029220;28;20132;-64
2022/04/26 18:43:18;;;;;;;5.00;1.08;;;;;;;;;;5012060;28;20046;-65
2022/04/26 18:45:44;;;;;;;6.30;1.13;;;;;;;;;;5057862;28;20056;-65
2022/04/26 18:48:10;;;;;;;5.93;0.93;;;;;;;;;;5028942;28;20527;-66
2022/04/26 18:50:36;;;;;;;5.28;0.93;;;;;;;;;;5020222;28;20049;-67
2022/04/26 18:53:02;;;;;;;5.35;1.10;;;;;;;;;;5030944;28;20034;-67
2022/04/26 18:55:29;;;;;;;5.35;1.05;;;;;;;;;;5031046;28;20084;-65
2022/04/26 18:57:55;;;;;;;7.88;1.02;;;;;;;;;;5030038;28;20467;-65
2022/04/26 19:00:21;;;;;;;6.38;0.80;;;;;;;;;;5028736;28;20045;-66
2022/04/26 19:02:47;;;;;;;7.45;2.00;;;;;;;;;;5029839;28;20037;-65
2022/04/26 19:05:13;;;;;;;5.15;0.82;;;;;;;;;;5049296;28;20340;-65